EDLN/MGL METAR and TAF weather

Enter ICAO airport designator
Station Type Date Time Source
EDLN METAR 2020/07/11 21:20 UTC NOAA

EDLN 112120Z AUTO VRB01KT 9999 // NCD 11/10 Q1026


Station Type Date Time Source
EDLN Decoded METAR 2020/07/11 21:20 UTC NOAA

Monchengladbach, Germany (EDLN) 51-13-49N 006-30-16E
Jul 11, 2020 - 05:20 PM EDT / 2020.07.11 2120 UTC
Wind: Variable at 1 MPH (1 KT):0
Visibility: greater than 7 mile(s):0
Temperature: 51 F (11 C)
Dew Point: 50 F (10 C)
Relative Humidity: 93%
Pressure (altimeter): 30.30 in. Hg (1026 hPa)
ob: EDLN 112120Z AUTO VRB01KT 9999 // NCD 11/10 Q1026
cycle: 21

Station Type Date Time Source
EDLN TAF 2010/02/22 14:20 UTC NOAA

METAR EDLN 221420Z 18010G20KT 090V240 9999 SCT030 BKN045 11/06 Q0986
RMK ATIS R=

Example: see airport list